Time;durP1;ratioP1;P1;durP2;ratioP2;P2;SDS_P1;SDS_P2;PMS_P1;PMS_P2;Temp;Humidity;BMP_temperature;BMP_pressure;BME280_temperature;BME280_humidity;BME280_pressure;Samples;Min_cycle;Max_cycle;Signal;HPM_P1;HPM_P2
2021/05/22 00:03:34;;;;;;;6.10;2.30;;;;;9.90;99610.00;;;;10548205;28;20185;-78
2021/05/22 00:08:36;;;;;;;5.83;2.10;;;;;9.90;99612.00;;;;10513236;28;20217;-78
2021/05/22 00:13:38;;;;;;;6.97;2.40;;;;;9.90;99602.00;;;;10529242;28;20200;-78
2021/05/22 00:18:40;;;;;;;7.97;2.13;;;;;9.80;99589.00;;;;10496776;28;20185;-78
2021/05/22 00:23:42;;;;;;;4.30;1.60;;;;;9.80;99597.00;;;;10530291;28;20548;-78
2021/05/22 00:28:43;;;;;;;6.93;2.10;;;;;9.80;99599.00;;;;10512339;28;20213;-78
2021/05/22 00:33:45;;;;;;;4.10;1.60;;;;;9.90;99591.00;;;;10513029;28;20196;-78
2021/05/22 00:38:47;;;;;;;5.30;1.50;;;;;10.00;99589.00;;;;10547035;28;20189;-78
2021/05/22 00:43:49;;;;;;;3.07;1.50;;;;;10.20;99591.00;;;;10543994;28;20583;-77
2021/05/22 00:48:51;;;;;;;3.90;1.50;;;;;10.30;99572.00;;;;10525159;28;20209;-77
2021/05/22 00:53:52;;;;;;;5.43;1.73;;;;;10.40;99584.00;;;;10507157;28;20667;-77
2021/05/22 00:58:54;;;;;;;6.67;1.60;;;;;10.50;99561.00;;;;10515873;28;20188;-76
2021/05/22 01:03:56;;;;;;;4.37;1.30;;;;;10.50;99571.00;;;;10506625;28;20201;-74
2021/05/22 01:09:07;;;;;;;3.90;1.30;;;;;10.50;99570.00;;;;10506396;28;20221;-75
2021/05/22 01:14:18;;;;;;;4.57;1.60;;;;;10.50;99573.00;;;;10523184;28;20207;-75
2021/05/22 01:19:47;;;;;;;6.30;1.97;;;;;10.50;99570.00;;;;10489536;28;20227;-75
2021/05/22 01:25:03;;;;;;;6.97;1.60;;;;;10.50;99578.00;;;;10505625;28;20201;-75
2021/05/22 01:30:06;;;;;;;4.93;2.23;;;;;10.40;99575.00;;;;10505415;28;20694;-75
2021/05/22 01:35:08;;;;;;;4.13;2.17;;;;;10.50;99556.00;;;;10489700;28;20201;-75
2021/05/22 01:40:11;;;;;;;6.27;2.27;;;;;10.60;99553.00;;;;10488700;28;20191;-75
2021/05/22 01:45:17;;;;;;;4.60;1.63;;;;;10.60;99560.00;;;;10505297;28;20200;-75
2021/05/22 01:50:21;;;;;;;5.07;1.47;;;;;10.70;99568.00;;;;10488368;28;20223;-75
2021/05/22 01:55:25;;;;;;;3.90;1.60;;;;;10.50;99565.00;;;;10488389;28;20196;-77
2021/05/22 02:00:27;;;;;;;6.40;2.17;;;;;10.20;99549.00;;;;10505195;28;20648;-76
2021/05/22 02:05:31;;;;;;;8.07;2.50;;;;;10.00;99568.00;;;;10487972;28;20213;-76
2021/05/22 02:10:33;;;;;;;6.63;2.20;;;;;9.90;99542.00;;;;10521910;28;20216;-76
2021/05/22 02:15:38;;;;;;;4.53;2.23;;;;;10.00;99574.00;;;;10505271;28;20328;-76
2021/05/22 02:20:40;;;;;;;9.13;2.20;;;;;10.10;99552.00;;;;10488151;28;20181;-75
2021/05/22 02:25:42;;;;;;;9.90;2.60;;;;;10.20;99570.00;;;;10504265;28;20205;-76
2021/05/22 02:30:46;;;;;;;8.90;2.87;;;;;10.30;99548.00;;;;10520527;28;20951;-75
2021/05/22 02:35:51;;;;;;;10.67;2.73;;;;;10.30;99563.00;;;;10471287;28;20197;-74
2021/05/22 02:40:57;;;;;;;6.73;2.20;;;;;10.30;99540.00;;;;10504107;28;20185;-74
2021/05/22 02:46:01;;;;;;;7.70;1.93;;;;;10.40;99535.00;;;;10520543;28;20193;-74
2021/05/22 02:51:09;;;;;;;4.90;1.37;;;;;10.50;99543.00;;;;10503418;28;20224;-74
2021/05/22 02:56:12;;;;;;;14.57;2.40;;;;;10.50;99532.00;;;;10516436;28;20201;-74
2021/05/22 03:01:14;;;;;;;9.43;1.50;;;;;10.50;99536.00;;;;10509966;28;20250;-75
2021/05/22 03:06:16;;;;;;;3.90;1.17;;;;;10.50;99530.00;;;;10503941;28;20557;-74
2021/05/22 03:11:20;;;;;;;7.23;1.27;;;;;10.50;99529.00;;;;10486640;28;20833;-74
2021/05/22 03:16:22;;;;;;;7.50;1.40;;;;;10.50;99533.00;;;;10522513;28;20185;-74
2021/05/22 03:21:25;;;;;;;12.67;1.57;;;;;10.50;99530.00;;;;10527849;28;20192;-74
2021/05/22 03:26:28;;;;;;;9.33;1.53;;;;;10.50;99534.00;;;;10502009;28;20225;-74
2021/05/22 03:31:30;;;;;;;6.70;1.50;;;;;10.50;99515.00;;;;10468291;28;20217;-74
2021/05/22 03:36:32;;;;;;;6.10;1.83;;;;;10.50;99531.00;;;;10485158;28;20202;-75
2021/05/22 03:41:34;;;;;;;6.33;1.23;;;;;10.50;99530.00;;;;10484789;28;20185;-74
2021/05/22 03:46:36;;;;;;;7.87;1.87;;;;;10.60;99535.00;;;;10485920;28;20321;-74
2021/05/22 03:51:37;;;;;;;9.40;1.90;;;;;10.60;99533.00;;;;10493048;28;20216;-74
2021/05/22 03:56:40;;;;;;;8.17;1.90;;;;;10.50;99527.00;;;;10467897;28;20221;-74
2021/05/22 04:01:42;;;;;;;14.70;2.00;;;;;10.60;99512.00;;;;10467791;28;20641;-75
2021/05/22 04:06:44;;;;;;;8.17;1.67;;;;;10.60;99518.00;;;;10467504;28;20265;-75
2021/05/22 04:11:45;;;;;;;4.40;1.40;;;;;10.70;99532.00;;;;10484004;28;20252;-75
2021/05/22 04:16:47;;;;;;;7.37;1.67;;;;;10.80;99526.00;;;;10501954;28;20619;-75
2021/05/22 04:21:49;;;;;;;6.20;1.53;;;;;10.80;99531.00;;;;10483910;28;20193;-75
2021/05/22 04:26:51;;;;;;;8.63;1.57;;;;;10.80;99542.00;;;;10507777;28;20204;-74
2021/05/22 04:31:54;;;;;;;6.93;1.80;;;;;10.80;99530.00;;;;10524798;28;20238;-74
2021/05/22 04:36:56;;;;;;;6.77;1.30;;;;;10.90;99530.00;;;;10507951;28;20197;-75
2021/05/22 04:41:58;;;;;;;5.70;1.90;;;;;10.90;99534.00;;;;10523852;28;20181;-75
2021/05/22 04:46:59;;;;;;;3.80;1.37;;;;;10.90;99550.00;;;;10507334;28;20201;-74
2021/05/22 04:52:02;;;;;;;10.10;1.77;;;;;10.80;99554.00;;;;10507855;28;20231;-75
2021/05/22 04:57:05;;;;;;;7.47;1.60;;;;;10.70;99544.00;;;;10490354;28;20196;-75
2021/05/22 05:02:07;;;;;;;5.57;2.17;;;;;10.80;99547.00;;;;10466653;28;20193;-75
2021/05/22 05:07:09;;;;;;;6.43;1.83;;;;;11.00;99544.00;;;;10484345;28;20561;-75
2021/05/22 05:12:13;;;;;;;6.70;1.60;;;;;11.20;99544.00;;;;10523776;28;20209;-74
2021/05/22 05:17:15;;;;;;;7.50;1.87;;;;;11.10;99547.00;;;;10507473;28;20595;-75
2021/05/22 05:22:17;;;;;;;4.83;1.67;;;;;11.00;99555.00;;;;10522415;28;20191;-75
2021/05/22 05:27:19;;;;;;;7.93;2.10;;;;;11.10;99551.00;;;;10506888;28;20197;-75
2021/05/22 05:32:21;;;;;;;7.40;1.90;;;;;11.10;99561.00;;;;10505702;28;20243;-74
2021/05/22 05:37:23;;;;;;;3.33;1.20;;;;;11.10;99560.00;;;;10500421;28;20247;-74
2021/05/22 05:42:25;;;;;;;8.73;1.63;;;;;11.10;99569.00;;;;10463389;28;20194;-75
2021/05/22 05:47:27;;;;;;;5.73;1.43;;;;;11.20;99571.00;;;;10463266;28;20251;-75
2021/05/22 05:52:29;;;;;;;6.27;1.23;;;;;11.50;99573.00;;;;10480648;28;20554;-75
2021/05/22 05:57:32;;;;;;;5.53;1.40;;;;;11.40;99582.00;;;;10480623;28;20631;-75
2021/05/22 06:02:34;;;;;;;4.87;1.30;;;;;11.40;99577.00;;;;10463327;28;20190;-75
2021/05/22 06:07:35;;;;;;;6.93;1.67;;;;;11.30;99605.00;;;;10480356;28;20215;-75
2021/05/22 06:12:40;;;;;;;5.10;1.53;;;;;11.40;99589.00;;;;10479421;28;20221;-75
2021/05/22 06:17:45;;;;;;;5.40;1.40;;;;;11.40;99606.00;;;;10463494;28;20640;-75
2021/05/22 06:22:47;;;;;;;7.30;1.90;;;;;11.30;99611.00;;;;10499340;28;20295;-75
2021/05/22 06:27:50;;;;;;;8.10;1.90;;;;;11.10;99608.00;;;;10505007;28;20201;-76
2021/05/22 06:32:52;;;;;;;7.07;1.33;;;;;10.90;99613.00;;;;10488089;28;20244;-76
2021/05/22 06:37:53;;;;;;;3.90;1.50;;;;;11.00;99621.00;;;;10488695;28;20189;-75
2021/05/22 06:42:56;;;;;;;6.90;1.33;;;;;11.30;99631.00;;;;10496131;28;20208;-75
2021/05/22 06:47:57;;;;;;;6.77;1.50;;;;;11.30;99629.00;;;;10488050;28;20243;-75
2021/05/22 06:52:59;;;;;;;5.30;1.10;;;;;11.50;99633.00;;;;10511433;28;20216;-75
2021/05/22 06:58:02;;;;;;;6.07;1.40;;;;;12.10;99633.00;;;;10528901;28;20193;-75
2021/05/22 07:03:04;;;;;;;12.13;2.13;;;;;12.90;99639.00;;;;10502842;28;20190;-75
2021/05/22 07:08:05;;;;;;;5.37;1.70;;;;;12.90;99651.00;;;;10503714;28;20255;-74
2021/05/22 07:13:07;;;;;;;5.83;2.63;;;;;12.60;99647.00;;;;10474442;28;20283;-74
2021/05/22 07:18:09;;;;;;;6.80;1.70;;;;;12.20;99666.00;;;;10486408;28;20185;-75
2021/05/22 07:23:11;;;;;;;12.77;1.90;;;;;12.00;99659.00;;;;10453444;28;20209;-75
2021/05/22 07:28:15;;;;;;;6.23;1.77;;;;;12.10;99680.00;;;;10483773;28;20200;-75
2021/05/22 07:33:17;;;;;;;3.90;1.43;;;;;12.40;99675.00;;;;10469373;28;20193;-75
2021/05/22 07:38:20;;;;;;;3.40;1.43;;;;;13.00;99678.00;;;;10490484;28;20591;-76
2021/05/22 07:43:22;;;;;;;6.63;2.00;;;;;13.20;99679.00;;;;10493081;28;20225;-76
2021/05/22 07:48:25;;;;;;;7.03;2.23;;;;;13.20;99684.00;;;;10526876;28;20242;-76
2021/05/22 07:53:27;;;;;;;6.03;1.90;;;;;13.00;99708.00;;;;10509492;28;20189;-76
2021/05/22 07:58:28;;;;;;;8.87;1.97;;;;;12.50;99715.00;;;;10493557;28;20223;-76
2021/05/22 08:03:30;;;;;;;10.00;2.03;;;;;12.50;99715.00;;;;10483404;28;20591;-76
2021/05/22 08:08:48;;;;;;;7.30;1.27;;;;;12.50;99721.00;;;;10525299;28;20216;-76
2021/05/22 08:13:50;;;;;;;7.17;1.90;;;;;12.80;99724.00;;;;10526171;28;20180;-76
2021/05/22 08:18:51;;;;;;;9.60;2.20;;;;;13.30;99719.00;;;;10525597;28;20238;-76
2021/05/22 08:23:53;;;;;;;8.07;1.87;;;;;13.40;99744.00;;;;10507874;28;20207;-76
2021/05/22 08:28:55;;;;;;;6.53;2.13;;;;;13.30;99740.00;;;;10524098;28;20204;-76
2021/05/22 08:33:57;;;;;;;10.37;1.97;;;;;13.20;99739.00;;;;10508052;28;20197;-74
2021/05/22 08:39:01;;;;;;;10.97;1.93;;;;;12.70;99743.00;;;;10524775;28;20193;-74
2021/05/22 08:44:04;;;;;;;10.00;2.03;;;;;12.80;99740.00;;;;10523685;28;20203;-75
2021/05/22 08:49:06;;;;;;;4.90;1.60;;;;;13.40;99740.00;;;;10524541;28;20721;-75
2021/05/22 08:54:09;;;;;;;4.43;1.80;;;;;13.00;99757.00;;;;10507125;28;20715;-75
2021/05/22 08:59:11;;;;;;;7.80;1.93;;;;;13.40;99753.00;;;;10523995;28;20212;-74
2021/05/22 09:04:13;;;;;;;4.90;1.63;;;;;13.90;99762.00;;;;10524049;28;20221;-75
2021/05/22 09:09:15;;;;;;;6.17;1.73;;;;;14.80;99764.00;;;;10489259;28;20225;-75
2021/05/22 09:14:38;;;;;;;7.70;1.87;;;;;15.00;99767.00;;;;10504891;28;20219;-75
2021/05/22 09:19:41;;;;;;;8.27;1.70;;;;;14.20;99770.00;;;;10522853;28;20193;-75
2021/05/22 09:25:01;;;;;;;7.57;2.27;;;;;14.20;99782.00;;;;10522745;28;20815;-75
2021/05/22 09:30:15;;;;;;;8.27;2.13;;;;;14.70;99808.00;;;;10506380;28;20205;-75
2021/05/22 09:35:17;;;;;;;8.53;2.30;;;;;15.10;99811.00;;;;10488766;28;20589;-75
2021/05/22 09:40:35;;;;;;;6.07;1.50;;;;;14.80;99821.00;;;;10522152;28;20185;-75
2021/05/22 09:45:43;;;;;;;5.53;1.93;;;;;14.60;99829.00;;;;10488284;28;20208;-75
2021/05/22 09:50:47;;;;;;;5.00;1.70;;;;;14.40;99830.00;;;;10488945;28;20217;-76
2021/05/22 09:56:11;;;;;;;5.23;2.00;;;;;13.90;99840.00;;;;10504625;28;20254;-76
2021/05/22 10:01:14;;;;;;;6.97;2.40;;;;;13.80;99849.00;;;;10504648;28;20193;-76
2021/05/22 10:06:16;;;;;;;9.90;2.37;;;;;13.80;99856.00;;;;10505180;28;20217;-75
2021/05/22 10:11:18;;;;;;;9.37;2.90;;;;;14.10;99861.00;;;;10538716;28;20278;-75
2021/05/22 10:16:20;;;;;;;10.67;2.30;;;;;13.80;99863.00;;;;10521101;28;20192;-75
2021/05/22 10:21:22;;;;;;;4.30;1.80;;;;;13.30;99869.00;;;;10538710;28;20198;-75
2021/05/22 10:26:24;;;;;;;8.90;2.43;;;;;13.60;99885.00;;;;10508525;28;20258;-75
2021/05/22 10:31:27;;;;;;;9.47;2.27;;;;;13.50;99879.00;;;;10512403;28;20688;-75
2021/05/22 10:36:47;;;;;;;6.77;2.23;;;;;13.60;99893.00;;;;10512483;28;20196;-75
2021/05/22 10:41:49;;;;;;;6.37;2.57;;;;;14.00;99897.00;;;;10499064;28;20224;-75
2021/05/22 10:47:12;;;;;;;10.00;2.70;;;;;14.40;99907.00;;;;10501364;28;20205;-75
2021/05/22 10:52:20;;;;;;;10.57;2.57;;;;;14.40;99907.00;;;;10486771;28;20217;-74
2021/05/22 10:57:24;;;;;;;7.13;2.17;;;;;14.10;99922.00;;;;10470128;28;20671;-74
2021/05/22 11:02:53;;;;;;;7.77;2.30;;;;;14.00;99937.00;;;;10487032;28;20236;-75
2021/05/22 11:08:05;;;;;;;5.63;2.00;;;;;13.40;99932.00;;;;10469862;28;20209;-75
2021/05/22 11:13:11;;;;;;;11.10;2.43;;;;;12.90;99950.00;;;;10486435;28;20214;-73
2021/05/22 11:18:26;;;;;;;10.17;3.23;;;;;13.10;99943.00;;;;10486194;28;20212;-73
2021/05/22 11:23:28;;;;;;;8.27;2.60;;;;;14.40;99938.00;;;;10469998;28;20197;-75
2021/05/22 11:28:51;;;;;;;4.53;1.90;;;;;14.20;99960.00;;;;10527854;28;20193;-73
2021/05/22 11:33:53;;;;;;;8.67;2.33;;;;;14.10;99959.00;;;;10493842;28;20201;-74
2021/05/22 11:38:55;;;;;;;5.33;2.10;;;;;13.70;99965.00;;;;10492831;28;20243;-75
2021/05/22 11:44:05;;;;;;;3.63;1.77;;;;;13.70;99973.00;;;;10509943;28;20219;-75
2021/05/22 11:49:07;;;;;;;4.33;1.80;;;;;13.20;99975.00;;;;10493482;28;20235;-75
2021/05/22 11:54:10;;;;;;;5.30;2.23;;;;;13.10;99972.00;;;;10527505;28;20213;-74
2021/05/22 11:59:13;;;;;;;5.90;1.77;;;;;13.50;99989.00;;;;10526733;28;20189;-74
2021/05/22 12:04:17;;;;;;;5.17;2.40;;;;;15.10;100002.00;;;;10526985;28;20192;-75
2021/05/22 12:09:22;;;;;;;4.60;2.40;;;;;15.00;100011.00;;;;10483768;28;20280;-74
2021/05/22 12:14:57;;;;;;;5.10;2.23;;;;;14.20;100032.00;;;;10467703;28;20194;-74
2021/05/22 12:19:59;;;;;;;6.47;2.37;;;;;14.10;100044.00;;;;10441109;28;20247;-75
2021/05/22 12:25:03;;;;;;;4.87;1.60;;;;;13.10;100063.00;;;;10498707;28;20598;-75
2021/05/22 12:30:06;;;;;;;4.63;1.77;;;;;12.30;100081.00;;;;10509156;28;20763;-75
2021/05/22 12:35:12;;;;;;;1.93;1.60;;;;;12.20;100085.00;;;;10475749;28;20719;-75
2021/05/22 12:40:15;;;;;;;2.77;1.13;;;;;12.00;100091.00;;;;10524485;28;20197;-75
2021/05/22 12:45:18;;;;;;;3.33;1.30;;;;;11.60;100104.00;;;;10507492;28;20239;-75
2021/05/22 12:50:26;;;;;;;3.57;1.47;;;;;11.60;100108.00;;;;10507543;28;20212;-75
2021/05/22 12:55:30;;;;;;;1.67;1.37;;;;;11.60;100112.00;;;;10490618;28;20219;-75
2021/05/22 13:00:32;;;;;;;1.17;1.00;;;;;11.70;100120.00;;;;10490363;28;20189;-75
2021/05/22 13:05:50;;;;;;;2.30;1.33;;;;;11.70;100136.00;;;;10534144;27;20576;-74
2021/05/22 13:10:52;;;;;;;2.37;1.67;;;;;11.60;100135.00;;;;10475161;28;20186;-74
2021/05/22 13:15:54;;;;;;;1.73;1.47;;;;;11.70;100135.00;;;;10474160;28;20203;-74
2021/05/22 13:20:59;;;;;;;1.60;1.50;;;;;11.90;100131.00;;;;10490551;28;20193;-74
2021/05/22 13:26:04;;;;;;;3.63;1.77;;;;;12.00;100134.00;;;;10490526;28;20224;-74
2021/05/22 13:36:13;;;;;;;3.77;2.40;;;;;12.10;100141.00;;;;10481996;28;20670;-74
2021/05/22 13:41:36;;;;;;;2.70;1.27;;;;;11.90;100140.00;;;;10499373;28;20213;-74
2021/05/22 13:46:38;;;;;;;3.07;1.80;;;;;12.30;100153.00;;;;10489547;28;20217;-74
2021/05/22 13:51:40;;;;;;;3.00;2.50;;;;;12.80;100150.00;;;;10489211;28;20206;-75
2021/05/22 13:56:42;;;;;;;2.27;2.07;;;;;12.50;100161.00;;;;10472028;28;20657;-74
2021/05/22 14:01:46;;;;;;;2.47;1.63;;;;;12.00;100153.00;;;;10472578;28;20214;-74
2021/05/22 14:06:47;;;;;;;3.23;1.70;;;;;12.60;100158.00;;;;10471636;28;20275;-75
2021/05/22 14:11:50;;;;;;;2.30;2.00;;;;;12.80;100160.00;;;;10493537;28;20204;-75
2021/05/22 14:16:51;;;;;;;3.57;2.77;;;;;12.40;100161.00;;;;10504224;28;20189;-75
2021/05/22 14:21:53;;;;;;;2.87;1.57;;;;;12.00;100151.00;;;;10485084;28;20209;-75
2021/05/22 14:26:55;;;;;;;3.93;2.40;;;;;12.40;100159.00;;;;10473481;28;20206;-75
2021/05/22 14:31:57;;;;;;;4.47;2.30;;;;;13.20;100164.00;;;;10443524;28;20239;-75
2021/05/22 14:36:59;;;;;;;4.80;1.93;;;;;13.80;100166.00;;;;10485016;28;20189;-76
2021/05/22 14:42:02;;;;;;;4.10;2.20;;;;;13.50;100170.00;;;;10456027;28;20669;-75
2021/05/22 14:47:04;;;;;;;3.00;1.63;;;;;13.40;100159.00;;;;10463666;28;21041;-75
2021/05/22 14:52:06;;;;;;;3.77;2.00;;;;;13.70;100160.00;;;;10499420;28;20193;-75
2021/05/22 14:57:09;;;;;;;3.57;2.60;;;;;13.90;100171.00;;;;10494637;28;20194;-76
2021/05/22 15:02:11;;;;;;;3.90;2.40;;;;;13.70;100171.00;;;;10464355;28;20701;-75
2021/05/22 15:07:13;;;;;;;11.27;4.00;;;;;13.40;100177.00;;;;10494859;28;20704;-75
2021/05/22 15:12:15;;;;;;;7.77;2.57;;;;;12.50;100177.00;;;;10521038;28;20205;-75
2021/05/22 15:17:17;;;;;;;7.93;3.53;;;;;12.20;100174.00;;;;10471189;28;20217;-76
2021/05/22 15:22:19;;;;;;;6.10;3.23;;;;;12.70;100168.00;;;;10464009;28;20676;-75
2021/05/22 15:27:22;;;;;;;14.97;9.57;;;;;13.50;100185.00;;;;10445624;28;20649;-75
2021/05/22 15:32:24;;;;;;;5.23;3.43;;;;;12.90;100194.00;;;;10438461;28;20221;-75
2021/05/22 15:37:26;;;;;;;5.20;2.70;;;;;12.60;100189.00;;;;10468585;28;20201;-75
2021/05/22 15:42:28;;;;;;;5.07;2.23;;;;;13.40;100192.00;;;;10451973;28;20262;-76
2021/05/22 16:08:19;;;;;;;8.23;3.60;;;;;13.30;100218.00;;;;10495280;28;20213;-71
2021/05/22 16:13:21;;;;;;;4.77;2.90;;;;;13.20;100208.00;;;;10476091;28;20228;-75
2021/05/22 16:18:23;;;;;;;5.50;3.53;;;;;13.10;100214.00;;;;10453456;28;20201;-75
2021/05/22 16:23:25;;;;;;;8.03;4.87;;;;;12.80;100210.00;;;;10469680;28;20212;-76
2021/05/22 16:28:27;;;;;;;3.80;2.33;;;;;12.50;100220.00;;;;10440410;28;20196;-75
2021/05/22 16:33:29;;;;;;;4.20;2.27;;;;;12.40;100218.00;;;;10453505;28;20527;-75
2021/05/22 16:38:31;;;;;;;7.17;2.93;;;;;12.30;100219.00;;;;10467688;28;20197;-76
2021/05/22 16:43:32;;;;;;;5.27;2.40;;;;;12.60;100223.00;;;;10423829;28;20984;-75
2021/05/22 16:48:34;;;;;;;8.10;2.93;;;;;12.90;100217.00;;;;10469577;28;20197;-75
2021/05/22 16:53:36;;;;;;;4.87;2.17;;;;;12.90;100224.00;;;;10419395;28;20220;-74
2021/05/22 16:58:41;;;;;;;5.10;2.10;;;;;13.40;100213.00;;;;10451338;28;20216;-74
2021/05/22 17:03:44;;;;;;;6.93;3.83;;;;;13.80;100212.00;;;;10417501;28;20214;-77
2021/05/22 17:08:46;;;;;;;10.50;4.67;;;;;14.00;100224.00;;;;10452827;28;20226;-76
2021/05/22 17:13:47;;;;;;;4.70;2.53;;;;;13.80;100229.00;;;;10435759;28;20727;-75
2021/05/22 17:18:50;;;;;;;7.93;2.47;;;;;13.70;100252.00;;;;10435787;28;20665;-75
2021/05/22 17:23:52;;;;;;;9.53;2.50;;;;;13.70;100242.00;;;;10496769;28;20210;-76
2021/05/22 17:28:54;;;;;;;4.83;2.60;;;;;13.70;100242.00;;;;10442562;28;20278;-76
2021/05/22 17:33:56;;;;;;;4.80;2.90;;;;;13.60;100254.00;;;;10428019;28;20194;-77
2021/05/22 17:39:09;;;;;;;5.23;2.73;;;;;13.50;100262.00;;;;10454684;28;20201;-77
2021/05/22 17:44:12;;;;;;;6.00;2.40;;;;;13.10;100274.00;;;;10454281;28;20210;-77
2021/05/22 17:49:15;;;;;;;4.63;2.00;;;;;12.70;100276.00;;;;10477868;28;20190;-76
2021/05/22 17:54:17;;;;;;;5.20;2.10;;;;;12.50;100262.00;;;;10449292;28;20649;-76
2021/05/22 17:59:19;;;;;;;14.20;7.00;;;;;12.40;100255.00;;;;10458394;28;20198;-77
2021/05/22 18:04:21;;;;;;;10.80;5.30;;;;;12.40;100253.00;;;;10438534;28;20210;-76
2021/05/22 18:09:23;;;;;;;4.73;1.87;;;;;12.30;100256.00;;;;10468758;28;20226;-76
2021/05/22 18:14:25;;;;;;;5.73;2.67;;;;;12.00;100258.00;;;;10461963;28;20247;-75
2021/05/22 18:19:32;;;;;;;7.53;3.50;;;;;11.70;100266.00;;;;10429540;28;20193;-75
2021/05/22 18:24:35;;;;;;;13.47;3.47;;;;;11.60;100269.00;;;;10458112;28;20753;-77
2021/05/22 18:29:37;;;;;;;8.83;3.00;;;;;11.40;100263.00;;;;10430115;28;20201;-78
2021/05/22 18:34:39;;;;;;;10.30;3.10;;;;;11.30;100261.00;;;;10438234;28;20194;-77
2021/05/22 18:39:41;;;;;;;10.60;3.57;;;;;11.30;100262.00;;;;10411064;28;20658;-78
2021/05/22 18:44:43;;;;;;;5.87;2.50;;;;;11.20;100253.00;;;;10441895;28;20214;-78
2021/05/22 18:49:45;;;;;;;9.33;3.50;;;;;11.10;100258.00;;;;10455937;28;20190;-77
2021/05/22 18:54:47;;;;;;;9.23;2.50;;;;;11.10;100259.00;;;;10470719;28;20240;-78
2021/05/22 18:59:49;;;;;;;7.97;2.57;;;;;11.00;100263.00;;;;10467154;28;20260;-76
2021/05/22 19:04:52;;;;;;;6.77;2.40;;;;;11.00;100249.00;;;;10454542;28;20221;-76
2021/05/22 19:09:55;;;;;;;12.57;3.83;;;;;10.90;100257.00;;;;10444809;28;20288;-77
2021/05/22 19:14:57;;;;;;;6.57;2.43;;;;;10.80;100263.00;;;;10506420;28;20188;-75
2021/05/22 19:19:59;;;;;;;5.70;2.37;;;;;10.70;100275.00;;;;10495107;28;20195;-77
2021/05/22 19:25:03;;;;;;;6.67;2.50;;;;;10.60;100275.00;;;;10538582;28;20775;-76
2021/05/22 19:30:09;;;;;;;6.80;2.20;;;;;10.50;100272.00;;;;10541890;28;20827;-76
2021/05/22 19:35:12;;;;;;;3.57;2.03;;;;;10.40;100285.00;;;;10537111;28;20193;-76
2021/05/22 19:40:16;;;;;;;6.07;2.60;;;;;10.30;100281.00;;;;10537818;28;20226;-76
2021/05/22 19:45:24;;;;;;;9.50;2.47;;;;;10.20;100288.00;;;;10545020;28;20193;-76
2021/05/22 19:50:26;;;;;;;7.87;2.47;;;;;10.10;100283.00;;;;10550697;27;20195;-77
2021/05/22 19:55:28;;;;;;;8.20;3.20;;;;;10.00;100294.00;;;;10518098;28;20189;-76
2021/05/22 20:00:30;;;;;;;14.47;6.03;;;;;10.00;100297.00;;;;10553577;28;20242;-76
2021/05/22 20:05:32;;;;;;;10.47;5.80;;;;;10.10;100306.00;;;;10499597;28;20227;-77
2021/05/22 20:10:35;;;;;;;9.37;3.93;;;;;10.10;100307.00;;;;10550065;28;20248;-76
2021/05/22 20:15:37;;;;;;;8.83;3.17;;;;;10.10;100306.00;;;;10528305;28;20196;-76
2021/05/22 20:20:39;;;;;;;7.60;3.20;;;;;10.10;100323.00;;;;10516722;28;20563;-76
2021/05/22 20:25:41;;;;;;;9.87;3.50;;;;;10.20;100326.00;;;;10503824;28;20205;-76
2021/05/22 20:30:44;;;;;;;5.07;3.20;;;;;10.30;100332.00;;;;10537018;28;20195;-76
2021/05/22 20:35:45;;;;;;;5.87;3.27;;;;;10.30;100339.00;;;;10539112;28;20273;-77
2021/05/22 20:40:47;;;;;;;6.23;3.10;;;;;10.20;100340.00;;;;10538712;28;20551;-77
2021/05/22 20:45:49;;;;;;;7.90;3.47;;;;;10.20;100339.00;;;;10519546;28;20200;-77
2021/05/22 20:50:52;;;;;;;8.43;3.67;;;;;10.20;100340.00;;;;10502308;28;20196;-76
2021/05/22 20:55:54;;;;;;;7.10;3.50;;;;;10.20;100350.00;;;;10537109;28;20203;-77
2021/05/22 21:00:57;;;;;;;11.37;3.47;;;;;10.20;100353.00;;;;10553207;28;20191;-76
2021/05/22 21:05:59;;;;;;;6.17;3.87;;;;;10.20;100355.00;;;;10484690;28;20311;-77
2021/05/22 21:11:05;;;;;;;10.57;4.30;;;;;10.10;100346.00;;;;10518021;28;20239;-77
2021/05/22 21:16:07;;;;;;;8.13;4.70;;;;;10.00;100355.00;;;;10491514;28;20862;-76
2021/05/22 21:21:09;;;;;;;5.37;3.97;;;;;9.90;100351.00;;;;10520388;28;20227;-76
2021/05/22 21:26:12;;;;;;;5.37;4.20;;;;;9.90;100349.00;;;;10517841;28;20222;-77
2021/05/22 21:31:15;;;;;;;7.70;3.87;;;;;9.80;100368.00;;;;10549242;28;20222;-76
2021/05/22 21:36:17;;;;;;;12.43;5.80;;;;;9.80;100371.00;;;;10522624;28;20191;-76
2021/05/22 21:41:19;;;;;;;7.40;4.40;;;;;9.80;100374.00;;;;10492833;28;20185;-76
2021/05/22 21:46:21;;;;;;;8.93;4.73;;;;;9.80;100378.00;;;;10523843;28;20283;-76
2021/05/22 21:51:22;;;;;;;7.33;3.73;;;;;9.70;100382.00;;;;10544156;28;20185;-77
2021/05/22 21:56:25;;;;;;;6.73;4.47;;;;;9.70;100378.00;;;;10543778;28;20185;-76
2021/05/22 22:01:27;;;;;;;6.43;3.63;;;;;9.70;100391.00;;;;10476918;28;20205;-76
2021/05/22 22:06:29;;;;;;;8.77;5.17;;;;;9.70;100387.00;;;;10510880;28;20232;-76
2021/05/22 22:11:35;;;;;;;6.77;5.13;;;;;9.70;100393.00;;;;10494829;28;20636;-76
2021/05/22 22:16:38;;;;;;;7.77;4.70;;;;;9.70;100382.00;;;;10510520;28;20196;-76
2021/05/22 22:21:40;;;;;;;7.43;5.33;;;;;9.70;100390.00;;;;10533742;28;20253;-76
2021/05/22 22:26:44;;;;;;;7.17;4.53;;;;;9.70;100396.00;;;;10518798;28;20698;-76
2021/05/22 22:31:46;;;;;;;12.40;6.30;;;;;9.70;100401.00;;;;10568890;28;20267;-76
2021/05/22 22:36:48;;;;;;;8.20;5.80;;;;;9.70;100397.00;;;;10534503;28;20189;-76
2021/05/22 22:41:49;;;;;;;7.43;5.50;;;;;9.70;100399.00;;;;10551480;28;20302;-76
2021/05/22 22:46:51;;;;;;;12.17;6.13;;;;;9.70;100401.00;;;;10517924;28;20277;-75
2021/05/22 22:51:53;;;;;;;8.93;5.97;;;;;9.70;100407.00;;;;10568753;28;20240;-76
2021/05/22 22:56:55;;;;;;;8.33;5.77;;;;;9.70;100415.00;;;;10566991;28;20707;-76
2021/05/22 23:01:57;;;;;;;9.30;6.23;;;;;9.70;100410.00;;;;10506694;28;20222;-76
2021/05/22 23:07:02;;;;;;;8.73;5.83;;;;;9.70;100421.00;;;;10513557;28;20278;-76
2021/05/22 23:12:05;;;;;;;8.70;5.57;;;;;9.70;100424.00;;;;10508550;28;20188;-76
2021/05/22 23:17:07;;;;;;;11.83;5.67;;;;;9.70;100425.00;;;;10524677;28;20687;-76
2021/05/22 23:22:09;;;;;;;8.30;5.43;;;;;9.70;100426.00;;;;10508124;28;20246;-76
2021/05/22 23:27:10;;;;;;;7.43;5.30;;;;;9.70;100439.00;;;;10534452;28;20243;-76
2021/05/22 23:32:12;;;;;;;7.17;5.17;;;;;9.70;100440.00;;;;10490929;28;20216;-76
2021/05/22 23:37:14;;;;;;;7.40;5.63;;;;;9.70;100447.00;;;;10490590;28;20185;-76
2021/05/22 23:42:16;;;;;;;15.50;7.60;;;;;9.70;100447.00;;;;10507700;28;20192;-75
2021/05/22 23:47:18;;;;;;;12.87;7.13;;;;;9.70;100445.00;;;;10519053;28;20221;-76
2021/05/22 23:52:24;;;;;;;10.80;6.90;;;;;9.70;100450.00;;;;10515603;28;20218;-76
2021/05/22 23:57:28;;;;;;;13.03;6.57;;;;;9.70;100449.00;;;;10549645;28;20231;-76
